sensor_id;sensor_type;location;lat;lon;timestamp;temperature;humidity
14893;DHT22;7538;53.626;9.906;2023-05-07T00:00:42;9.90;99.90
14893;DHT22;7538;53.626;9.906;2023-05-07T00:03:10;9.90;99.90
14893;DHT22;7538;53.626;9.906;2023-05-07T00:05:39;9.80;99.90
14893;DHT22;7538;53.626;9.906;2023-05-07T00:08:06;9.70;99.90
14893;DHT22;7538;53.626;9.906;2023-05-07T00:10:33;9.70;99.90
14893;DHT22;7538;53.626;9.906;2023-05-07T00:13:00;9.70;99.90
14893;DHT22;7538;53.626;9.906;2023-05-07T00:15:27;9.70;99.90
14893;DHT22;7538;53.626;9.906;2023-05-07T00:17:55;9.70;99.90
14893;DHT22;7538;53.626;9.906;2023-05-07T00:20:24;9.70;99.90
14893;DHT22;7538;53.626;9.906;2023-05-07T00:22:51;9.70;99.90
14893;DHT22;7538;53.626;9.906;2023-05-07T00:25:18;9.70;99.90
14893;DHT22;7538;53.626;9.906;2023-05-07T00:27:46;9.70;99.90
14893;DHT22;7538;53.626;9.906;2023-05-07T00:30:13;9.70;99.90
14893;DHT22;7538;53.626;9.906;2023-05-07T00:32:40;9.60;99.90
14893;DHT22;7538;53.626;9.906;2023-05-07T00:35:08;9.60;99.90
14893;DHT22;7538;53.626;9.906;2023-05-07T00:37:36;9.60;99.90
14893;DHT22;7538;53.626;9.906;2023-05-07T00:40:03;9.60;99.90
14893;DHT22;7538;53.626;9.906;2023-05-07T00:42:32;9.60;99.90
14893;DHT22;7538;53.626;9.906;2023-05-07T00:44:59;9.60;99.90
14893;DHT22;7538;53.626;9.906;2023-05-07T00:47:26;9.60;99.90
14893;DHT22;7538;53.626;9.906;2023-05-07T00:49:53;9.60;99.90
14893;DHT22;7538;53.626;9.906;2023-05-07T00:52:21;9.60;99.90
14893;DHT22;7538;53.626;9.906;2023-05-07T00:54:52;9.60;99.90
14893;DHT22;7538;53.626;9.906;2023-05-07T00:57:19;9.70;99.90
14893;DHT22;7538;53.626;9.906;2023-05-07T00:59:47;9.70;99.90
14893;DHT22;7538;53.626;9.906;2023-05-07T01:02:14;9.70;99.90
14893;DHT22;7538;53.626;9.906;2023-05-07T01:04:41;9.70;99.90
14893;DHT22;7538;53.626;9.906;2023-05-07T01:07:08;9.60;99.90
14893;DHT22;7538;53.626;9.906;2023-05-07T01:09:35;9.60;99.90
14893;DHT22;7538;53.626;9.906;2023-05-07T01:12:05;9.70;99.90
14893;DHT22;7538;53.626;9.906;2023-05-07T01:14:33;9.70;99.90
14893;DHT22;7538;53.626;9.906;2023-05-07T01:17:00;9.70;99.90
14893;DHT22;7538;53.626;9.906;2023-05-07T01:19:29;9.70;99.90
14893;DHT22;7538;53.626;9.906;2023-05-07T01:22:02;9.70;99.90
14893;DHT22;7538;53.626;9.906;2023-05-07T01:24:31;9.80;99.90
14893;DHT22;7538;53.626;9.906;2023-05-07T01:26:59;9.80;99.90
14893;DHT22;7538;53.626;9.906;2023-05-07T01:29:27;9.80;99.90
14893;DHT22;7538;53.626;9.906;2023-05-07T01:31:54;9.70;99.90
14893;DHT22;7538;53.626;9.906;2023-05-07T01:34:22;9.60;99.90
14893;DHT22;7538;53.626;9.906;2023-05-07T01:36:51;9.60;99.90
14893;DHT22;7538;53.626;9.906;2023-05-07T01:39:18;9.60;99.90
14893;DHT22;7538;53.626;9.906;2023-05-07T01:41:47;9.60;99.90
14893;DHT22;7538;53.626;9.906;2023-05-07T01:44:14;9.60;99.90
14893;DHT22;7538;53.626;9.906;2023-05-07T01:46:42;9.60;99.90
14893;DHT22;7538;53.626;9.906;2023-05-07T01:49:09;9.60;99.90
14893;DHT22;7538;53.626;9.906;2023-05-07T01:51:36;9.60;99.90
14893;DHT22;7538;53.626;9.906;2023-05-07T01:54:03;9.60;99.90
14893;DHT22;7538;53.626;9.906;2023-05-07T01:56:31;9.70;99.90
14893;DHT22;7538;53.626;9.906;2023-05-07T01:58:59;9.70;99.90
14893;DHT22;7538;53.626;9.906;2023-05-07T02:01:26;9.60;99.90
14893;DHT22;7538;53.626;9.906;2023-05-07T02:03:53;9.70;99.90
14893;DHT22;7538;53.626;9.906;2023-05-07T02:06:20;9.60;99.90
14893;DHT22;7538;53.626;9.906;2023-05-07T02:08:47;9.60;99.90
14893;DHT22;7538;53.626;9.906;2023-05-07T02:11:14;9.60;99.90
14893;DHT22;7538;53.626;9.906;2023-05-07T02:13:41;9.60;99.90
14893;DHT22;7538;53.626;9.906;2023-05-07T02:16:09;9.60;99.90
14893;DHT22;7538;53.626;9.906;2023-05-07T02:18:36;9.50;99.90
14893;DHT22;7538;53.626;9.906;2023-05-07T02:21:03;9.50;99.90
14893;DHT22;7538;53.626;9.906;2023-05-07T02:23:30;9.60;99.90
14893;DHT22;7538;53.626;9.906;2023-05-07T02:25:57;9.60;99.90
14893;DHT22;7538;53.626;9.906;2023-05-07T02:28:24;9.60;99.90
14893;DHT22;7538;53.626;9.906;2023-05-07T02:30:50;9.60;99.90
14893;DHT22;7538;53.626;9.906;2023-05-07T02:33:19;9.60;99.90
14893;DHT22;7538;53.626;9.906;2023-05-07T02:35:45;9.70;99.90
14893;DHT22;7538;53.626;9.906;2023-05-07T02:38:12;9.60;99.90
14893;DHT22;7538;53.626;9.906;2023-05-07T02:40:39;9.60;99.90
14893;DHT22;7538;53.626;9.906;2023-05-07T02:43:06;9.60;99.90
14893;DHT22;7538;53.626;9.906;2023-05-07T02:45:33;9.60;99.90
14893;DHT22;7538;53.626;9.906;2023-05-07T02:48:00;9.60;99.90
14893;DHT22;7538;53.626;9.906;2023-05-07T02:50:28;9.60;99.90
14893;DHT22;7538;53.626;9.906;2023-05-07T02:52:55;9.60;99.90
14893;DHT22;7538;53.626;9.906;2023-05-07T02:55:22;9.60;99.90
14893;DHT22;7538;53.626;9.906;2023-05-07T02:57:48;9.50;99.90
14893;DHT22;7538;53.626;9.906;2023-05-07T03:00:17;9.40;99.90
14893;DHT22;7538;53.626;9.906;2023-05-07T03:02:44;9.40;99.90
14893;DHT22;7538;53.626;9.906;2023-05-07T03:05:11;9.30;99.90
14893;DHT22;7538;53.626;9.906;2023-05-07T03:07:41;9.30;99.90
14893;DHT22;7538;53.626;9.906;2023-05-07T03:10:10;9.20;99.90
14893;DHT22;7538;53.626;9.906;2023-05-07T03:12:37;9.20;99.90
14893;DHT22;7538;53.626;9.906;2023-05-07T03:15:05;9.20;99.90
14893;DHT22;7538;53.626;9.906;2023-05-07T03:17:32;9.30;99.90
14893;DHT22;7538;53.626;9.906;2023-05-07T03:19:59;9.30;99.90
14893;DHT22;7538;53.626;9.906;2023-05-07T03:22:25;9.30;99.90
14893;DHT22;7538;53.626;9.906;2023-05-07T03:24:53;9.40;99.90
14893;DHT22;7538;53.626;9.906;2023-05-07T03:27:20;9.30;99.90
14893;DHT22;7538;53.626;9.906;2023-05-07T03:29:47;9.30;99.90
14893;DHT22;7538;53.626;9.906;2023-05-07T03:32:14;11.20;99.90
14893;DHT22;7538;53.626;9.906;2023-05-07T03:34:41;9.30;99.90
14893;DHT22;7538;53.626;9.906;2023-05-07T03:37:08;9.30;99.90
14893;DHT22;7538;53.626;9.906;2023-05-07T03:39:34;9.30;99.90
14893;DHT22;7538;53.626;9.906;2023-05-07T03:42:03;9.20;99.90
14893;DHT22;7538;53.626;9.906;2023-05-07T03:44:30;9.20;99.90
14893;DHT22;7538;53.626;9.906;2023-05-07T03:46:56;9.10;99.90
14893;DHT22;7538;53.626;9.906;2023-05-07T03:49:23;9.10;99.90
14893;DHT22;7538;53.626;9.906;2023-05-07T03:51:50;9.20;99.90
14893;DHT22;7538;53.626;9.906;2023-05-07T03:54:17;9.10;99.90
14893;DHT22;7538;53.626;9.906;2023-05-07T03:56:44;9.10;99.90
14893;DHT22;7538;53.626;9.906;2023-05-07T03:59:12;9.20;99.90
14893;DHT22;7538;53.626;9.906;2023-05-07T04:01:39;9.20;99.90
14893;DHT22;7538;53.626;9.906;2023-05-07T04:04:06;9.10;99.90
14893;DHT22;7538;53.626;9.906;2023-05-07T04:06:32;9.10;99.90
14893;DHT22;7538;53.626;9.906;2023-05-07T04:08:59;9.10;99.90
14893;DHT22;7538;53.626;9.906;2023-05-07T04:11:26;9.10;99.90
14893;DHT22;7538;53.626;9.906;2023-05-07T04:13:53;9.20;99.90
14893;DHT22;7538;53.626;9.906;2023-05-07T04:16:21;9.20;99.90
14893;DHT22;7538;53.626;9.906;2023-05-07T04:18:48;9.20;99.90
14893;DHT22;7538;53.626;9.906;2023-05-07T04:21:15;9.30;99.90
14893;DHT22;7538;53.626;9.906;2023-05-07T04:23:42;9.30;99.90
14893;DHT22;7538;53.626;9.906;2023-05-07T04:26:09;9.40;99.90
14893;DHT22;7538;53.626;9.906;2023-05-07T04:28:36;9.40;99.90
14893;DHT22;7538;53.626;9.906;2023-05-07T04:31:03;9.50;99.90
14893;DHT22;7538;53.626;9.906;2023-05-07T04:33:31;9.50;99.90
14893;DHT22;7538;53.626;9.906;2023-05-07T04:35:58;9.60;99.90
14893;DHT22;7538;53.626;9.906;2023-05-07T04:38:28;9.50;99.90
14893;DHT22;7538;53.626;9.906;2023-05-07T04:40:55;9.50;99.90
14893;DHT22;7538;53.626;9.906;2023-05-07T04:43:22;9.40;99.90
14893;DHT22;7538;53.626;9.906;2023-05-07T04:45:50;9.40;99.90
14893;DHT22;7538;53.626;9.906;2023-05-07T04:48:17;9.40;99.90
14893;DHT22;7538;53.626;9.906;2023-05-07T04:50:47;9.40;99.90
14893;DHT22;7538;53.626;9.906;2023-05-07T04:53:14;9.50;99.90
14893;DHT22;7538;53.626;9.906;2023-05-07T04:55:41;9.50;99.90
14893;DHT22;7538;53.626;9.906;2023-05-07T04:58:08;9.50;99.90
14893;DHT22;7538;53.626;9.906;2023-05-07T05:00:35;9.50;99.90
14893;DHT22;7538;53.626;9.906;2023-05-07T05:03:02;9.40;99.90
14893;DHT22;7538;53.626;9.906;2023-05-07T05:05:29;9.40;99.90
14893;DHT22;7538;53.626;9.906;2023-05-07T05:07:57;9.50;99.90
14893;DHT22;7538;53.626;9.906;2023-05-07T05:10:24;9.50;99.90
14893;DHT22;7538;53.626;9.906;2023-05-07T05:12:51;13.20;99.90
14893;DHT22;7538;53.626;9.906;2023-05-07T05:15:18;9.50;99.90
14893;DHT22;7538;53.626;9.906;2023-05-07T05:17:45;9.50;99.90
14893;DHT22;7538;53.626;9.906;2023-05-07T05:20:12;9.50;99.90
14893;DHT22;7538;53.626;9.906;2023-05-07T05:22:39;9.60;99.90
14893;DHT22;7538;53.626;9.906;2023-05-07T05:25:08;9.60;99.90
14893;DHT22;7538;53.626;9.906;2023-05-07T05:27:35;9.50;99.90
14893;DHT22;7538;53.626;9.906;2023-05-07T05:30:02;9.50;99.90
14893;DHT22;7538;53.626;9.906;2023-05-07T05:32:29;9.60;99.90
14893;DHT22;7538;53.626;9.906;2023-05-07T05:34:56;9.50;99.90
14893;DHT22;7538;53.626;9.906;2023-05-07T05:37:23;9.50;99.90
14893;DHT22;7538;53.626;9.906;2023-05-07T05:39:50;9.50;99.90
14893;DHT22;7538;53.626;9.906;2023-05-07T05:42:18;9.60;99.90
14893;DHT22;7538;53.626;9.906;2023-05-07T05:44:45;9.60;99.90
14893;DHT22;7538;53.626;9.906;2023-05-07T05:47:12;9.60;99.90
14893;DHT22;7538;53.626;9.906;2023-05-07T05:49:39;9.60;99.90
14893;DHT22;7538;53.626;9.906;2023-05-07T05:52:06;9.70;99.90
14893;DHT22;7538;53.626;9.906;2023-05-07T05:54:32;9.80;99.90
14893;DHT22;7538;53.626;9.906;2023-05-07T05:56:59;9.80;99.90
14893;DHT22;7538;53.626;9.906;2023-05-07T05:59:30;9.80;99.90
14893;DHT22;7538;53.626;9.906;2023-05-07T06:01:57;9.70;99.90
14893;DHT22;7538;53.626;9.906;2023-05-07T06:04:24;9.70;99.90
14893;DHT22;7538;53.626;9.906;2023-05-07T06:06:51;9.80;99.90
14893;DHT22;7538;53.626;9.906;2023-05-07T06:09:18;9.80;99.90
14893;DHT22;7538;53.626;9.906;2023-05-07T06:11:45;9.80;99.90
14893;DHT22;7538;53.626;9.906;2023-05-07T06:14:12;9.80;99.90
14893;DHT22;7538;53.626;9.906;2023-05-07T06:16:40;9.80;99.90
14893;DHT22;7538;53.626;9.906;2023-05-07T06:19:07;9.70;99.90
14893;DHT22;7538;53.626;9.906;2023-05-07T06:21:34;9.70;99.90
14893;DHT22;7538;53.626;9.906;2023-05-07T06:24:01;9.70;99.90
14893;DHT22;7538;53.626;9.906;2023-05-07T06:26:28;9.70;99.90
14893;DHT22;7538;53.626;9.906;2023-05-07T06:28:54;9.70;99.90
14893;DHT22;7538;53.626;9.906;2023-05-07T06:31:21;9.70;99.90
14893;DHT22;7538;53.626;9.906;2023-05-07T06:33:50;9.70;99.90
14893;DHT22;7538;53.626;9.906;2023-05-07T06:36:16;9.80;99.90
14893;DHT22;7538;53.626;9.906;2023-05-07T06:38:43;9.80;99.90
14893;DHT22;7538;53.626;9.906;2023-05-07T06:41:10;9.80;99.90
14893;DHT22;7538;53.626;9.906;2023-05-07T06:43:37;9.90;99.90
14893;DHT22;7538;53.626;9.906;2023-05-07T06:46:04;10.00;99.90
14893;DHT22;7538;53.626;9.906;2023-05-07T06:48:31;10.10;99.90
14893;DHT22;7538;53.626;9.906;2023-05-07T06:50:59;10.10;99.90
14893;DHT22;7538;53.626;9.906;2023-05-07T06:53:26;10.10;99.90
14893;DHT22;7538;53.626;9.906;2023-05-07T06:55:54;10.10;99.90
14893;DHT22;7538;53.626;9.906;2023-05-07T06:58:21;10.10;99.90
14893;DHT22;7538;53.626;9.906;2023-05-07T07:00:48;10.10;99.90
14893;DHT22;7538;53.626;9.906;2023-05-07T07:03:15;10.10;99.90
14893;DHT22;7538;53.626;9.906;2023-05-07T07:05:41;7.40;99.90
14893;DHT22;7538;53.626;9.906;2023-05-07T07:08:10;10.20;99.90
14893;DHT22;7538;53.626;9.906;2023-05-07T07:10:37;10.10;99.90
14893;DHT22;7538;53.626;9.906;2023-05-07T07:13:04;10.30;99.90
14893;DHT22;7538;53.626;9.906;2023-05-07T07:15:31;10.40;99.90
14893;DHT22;7538;53.626;9.906;2023-05-07T07:17:57;10.40;99.90
14893;DHT22;7538;53.626;9.906;2023-05-07T07:20:24;10.40;99.90
14893;DHT22;7538;53.626;9.906;2023-05-07T07:22:51;10.50;99.90
14893;DHT22;7538;53.626;9.906;2023-05-07T07:25:19;10.50;99.90
14893;DHT22;7538;53.626;9.906;2023-05-07T07:27:46;10.50;99.90
14893;DHT22;7538;53.626;9.906;2023-05-07T07:30:13;10.40;99.90
14893;DHT22;7538;53.626;9.906;2023-05-07T07:32:40;10.50;99.90
14893;DHT22;7538;53.626;9.906;2023-05-07T07:35:07;10.70;99.90
14893;DHT22;7538;53.626;9.906;2023-05-07T07:37:34;10.70;99.90
14893;DHT22;7538;53.626;9.906;2023-05-07T07:40:01;10.80;99.90
14893;DHT22;7538;53.626;9.906;2023-05-07T07:42:30;10.80;99.90
14893;DHT22;7538;53.626;9.906;2023-05-07T07:44:57;10.80;99.90
14893;DHT22;7538;53.626;9.906;2023-05-07T07:47:24;10.90;99.90
14893;DHT22;7538;53.626;9.906;2023-05-07T07:49:50;10.80;99.90
14893;DHT22;7538;53.626;9.906;2023-05-07T07:52:18;10.80;99.90
14893;DHT22;7538;53.626;9.906;2023-05-07T07:54:45;10.80;99.90
14893;DHT22;7538;53.626;9.906;2023-05-07T07:57:12;10.90;99.90
14893;DHT22;7538;53.626;9.906;2023-05-07T07:59:40;11.00;99.90
14893;DHT22;7538;53.626;9.906;2023-05-07T08:02:08;11.00;99.90
14893;DHT22;7538;53.626;9.906;2023-05-07T08:04:35;11.10;99.90
14893;DHT22;7538;53.626;9.906;2023-05-07T08:07:03;10.90;99.90
14893;DHT22;7538;53.626;9.906;2023-05-07T08:09:30;11.00;99.90
14893;DHT22;7538;53.626;9.906;2023-05-07T08:11:57;11.00;99.90
14893;DHT22;7538;53.626;9.906;2023-05-07T08:14:24;11.10;99.90
14893;DHT22;7538;53.626;9.906;2023-05-07T08:16:52;11.10;99.90
14893;DHT22;7538;53.626;9.906;2023-05-07T08:19:19;11.30;99.90
14893;DHT22;7538;53.626;9.906;2023-05-07T08:21:47;11.20;99.90
14893;DHT22;7538;53.626;9.906;2023-05-07T08:24:14;11.80;99.90
14893;DHT22;7538;53.626;9.906;2023-05-07T08:26:41;11.20;99.90
14893;DHT22;7538;53.626;9.906;2023-05-07T08:29:08;11.20;99.90
14893;DHT22;7538;53.626;9.906;2023-05-07T08:31:35;11.20;99.90
14893;DHT22;7538;53.626;9.906;2023-05-07T08:34:03;11.20;99.90
14893;DHT22;7538;53.626;9.906;2023-05-07T08:36:30;11.40;99.90
14893;DHT22;7538;53.626;9.906;2023-05-07T08:38:57;11.30;99.90
14893;DHT22;7538;53.626;9.906;2023-05-07T08:41:24;11.30;99.90
14893;DHT22;7538;53.626;9.906;2023-05-07T08:43:51;11.20;99.90
14893;DHT22;7538;53.626;9.906;2023-05-07T08:46:19;11.20;99.90
14893;DHT22;7538;53.626;9.906;2023-05-07T08:48:48;11.30;99.90
14893;DHT22;7538;53.626;9.906;2023-05-07T08:51:18;11.30;99.90
14893;DHT22;7538;53.626;9.906;2023-05-07T08:53:46;11.30;99.90
14893;DHT22;7538;53.626;9.906;2023-05-07T08:56:15;11.40;99.90
14893;DHT22;7538;53.626;9.906;2023-05-07T08:58:42;11.40;99.90
14893;DHT22;7538;53.626;9.906;2023-05-07T09:01:12;11.40;99.90
14893;DHT22;7538;53.626;9.906;2023-05-07T09:03:40;11.50;99.90
14893;DHT22;7538;53.626;9.906;2023-05-07T09:06:07;11.40;99.90
14893;DHT22;7538;53.626;9.906;2023-05-07T09:08:35;11.20;99.90
14893;DHT22;7538;53.626;9.906;2023-05-07T09:11:02;11.20;99.90
14893;DHT22;7538;53.626;9.906;2023-05-07T09:13:29;11.20;99.90
14893;DHT22;7538;53.626;9.906;2023-05-07T09:15:56;11.30;99.90
14893;DHT22;7538;53.626;9.906;2023-05-07T09:18:24;11.30;99.90
14893;DHT22;7538;53.626;9.906;2023-05-07T09:20:50;11.50;99.90
14893;DHT22;7538;53.626;9.906;2023-05-07T09:23:17;11.50;99.90
14893;DHT22;7538;53.626;9.906;2023-05-07T09:25:45;11.50;99.90
14893;DHT22;7538;53.626;9.906;2023-05-07T09:28:12;11.50;99.90
14893;DHT22;7538;53.626;9.906;2023-05-07T09:30:39;11.60;99.90
14893;DHT22;7538;53.626;9.906;2023-05-07T09:33:06;11.70;99.90
14893;DHT22;7538;53.626;9.906;2023-05-07T09:35:33;11.70;99.90
14893;DHT22;7538;53.626;9.906;2023-05-07T09:38:01;11.80;99.90
14893;DHT22;7538;53.626;9.906;2023-05-07T09:40:30;11.90;99.90
14893;DHT22;7538;53.626;9.906;2023-05-07T09:43:09;12.10;99.90
14893;DHT22;7538;53.626;9.906;2023-05-07T09:45:36;12.10;99.90
14893;DHT22;7538;53.626;9.906;2023-05-07T09:48:05;12.10;99.90
14893;DHT22;7538;53.626;9.906;2023-05-07T09:50:40;12.10;99.90
14893;DHT22;7538;53.626;9.906;2023-05-07T09:53:11;12.20;99.90
14893;DHT22;7538;53.626;9.906;2023-05-07T09:55:39;12.30;99.90
14893;DHT22;7538;53.626;9.906;2023-05-07T09:58:09;12.30;99.90
14893;DHT22;7538;53.626;9.906;2023-05-07T10:00:39;12.30;99.90
14893;DHT22;7538;53.626;9.906;2023-05-07T10:03:08;12.30;99.90
14893;DHT22;7538;53.626;9.906;2023-05-07T10:05:36;12.20;99.90
14893;DHT22;7538;53.626;9.906;2023-05-07T10:08:03;12.30;99.90
14893;DHT22;7538;53.626;9.906;2023-05-07T10:10:32;12.20;99.90
14893;DHT22;7538;53.626;9.906;2023-05-07T10:13:00;12.10;99.90
14893;DHT22;7538;53.626;9.906;2023-05-07T10:15:32;12.20;99.90
14893;DHT22;7538;53.626;9.906;2023-05-07T10:18:00;12.20;99.90
14893;DHT22;7538;53.626;9.906;2023-05-07T10:20:27;12.10;99.90
14893;DHT22;7538;53.626;9.906;2023-05-07T10:22:56;12.10;99.90
14893;DHT22;7538;53.626;9.906;2023-05-07T10:25:29;12.00;99.90
14893;DHT22;7538;53.626;9.906;2023-05-07T10:27:59;12.70;99.90
14893;DHT22;7538;53.626;9.906;2023-05-07T10:30:36;12.00;99.90
14893;DHT22;7538;53.626;9.906;2023-05-07T10:33:07;12.10;99.90
14893;DHT22;7538;53.626;9.906;2023-05-07T10:35:38;12.00;99.90
14893;DHT22;7538;53.626;9.906;2023-05-07T10:38:07;12.00;99.90
14893;DHT22;7538;53.626;9.906;2023-05-07T10:40:34;12.00;99.90
14893;DHT22;7538;53.626;9.906;2023-05-07T10:43:02;11.90;99.90
14893;DHT22;7538;53.626;9.906;2023-05-07T10:45:31;12.00;99.90
14893;DHT22;7538;53.626;9.906;2023-05-07T10:48:12;11.90;99.90
14893;DHT22;7538;53.626;9.906;2023-05-07T10:50:40;12.00;99.90
14893;DHT22;7538;53.626;9.906;2023-05-07T10:53:25;12.00;99.90
14893;DHT22;7538;53.626;9.906;2023-05-07T10:56:24;12.10;99.90
14893;DHT22;7538;53.626;9.906;2023-05-07T10:58:52;12.30;99.90
14893;DHT22;7538;53.626;9.906;2023-05-07T11:01:49;12.30;99.90
14893;DHT22;7538;53.626;9.906;2023-05-07T11:04:18;12.40;99.90
14893;DHT22;7538;53.626;9.906;2023-05-07T11:10:03;12.50;99.90
14893;DHT22;7538;53.626;9.906;2023-05-07T11:12:53;12.60;99.90
14893;DHT22;7538;53.626;9.906;2023-05-07T11:15:38;12.80;99.90
14893;DHT22;7538;53.626;9.906;2023-05-07T11:18:05;12.90;99.90
14893;DHT22;7538;53.626;9.906;2023-05-07T11:20:50;13.00;99.90
14893;DHT22;7538;53.626;9.906;2023-05-07T11:23:55;13.10;99.90
14893;DHT22;7538;53.626;9.906;2023-05-07T11:26:22;13.20;99.90
14893;DHT22;7538;53.626;9.906;2023-05-07T11:28:49;13.20;99.90
14893;DHT22;7538;53.626;9.906;2023-05-07T11:31:22;13.20;99.90
14893;DHT22;7538;53.626;9.906;2023-05-07T11:33:49;13.30;99.90
14893;DHT22;7538;53.626;9.906;2023-05-07T11:36:18;13.50;99.90
14893;DHT22;7538;53.626;9.906;2023-05-07T11:38:46;13.60;99.90
14893;DHT22;7538;53.626;9.906;2023-05-07T11:41:13;13.70;99.90
14893;DHT22;7538;53.626;9.906;2023-05-07T11:43:57;13.80;99.90
14893;DHT22;7538;53.626;9.906;2023-05-07T11:46:24;14.10;99.90
14893;DHT22;7538;53.626;9.906;2023-05-07T11:48:51;14.00;99.90
14893;DHT22;7538;53.626;9.906;2023-05-07T11:51:24;13.90;99.90
14893;DHT22;7538;53.626;9.906;2023-05-07T11:53:51;14.00;99.90
14893;DHT22;7538;53.626;9.906;2023-05-07T11:56:18;13.80;99.90
14893;DHT22;7538;53.626;9.906;2023-05-07T11:58:46;13.80;99.90
14893;DHT22;7538;53.626;9.906;2023-05-07T12:01:14;14.10;99.90
14893;DHT22;7538;53.626;9.906;2023-05-07T12:03:43;14.40;99.90
14893;DHT22;7538;53.626;9.906;2023-05-07T12:06:12;14.40;99.90
14893;DHT22;7538;53.626;9.906;2023-05-07T12:08:41;14.40;99.90
14893;DHT22;7538;53.626;9.906;2023-05-07T12:11:09;14.50;99.90
14893;DHT22;7538;53.626;9.906;2023-05-07T12:13:37;14.40;99.90
14893;DHT22;7538;53.626;9.906;2023-05-07T12:16:05;14.40;99.90
14893;DHT22;7538;53.626;9.906;2023-05-07T12:18:33;14.50;99.90
14893;DHT22;7538;53.626;9.906;2023-05-07T12:21:01;16.30;99.90
14893;DHT22;7538;53.626;9.906;2023-05-07T12:23:28;14.30;99.90
14893;DHT22;7538;53.626;9.906;2023-05-07T12:25:57;14.30;99.90
14893;DHT22;7538;53.626;9.906;2023-05-07T12:28:24;14.30;99.90
14893;DHT22;7538;53.626;9.906;2023-05-07T12:30:51;14.30;99.90
14893;DHT22;7538;53.626;9.906;2023-05-07T12:33:25;14.40;99.90
14893;DHT22;7538;53.626;9.906;2023-05-07T12:35:54;14.50;99.90
14893;DHT22;7538;53.626;9.906;2023-05-07T12:38:22;14.70;99.90
14893;DHT22;7538;53.626;9.906;2023-05-07T12:40:50;15.00;99.90
14893;DHT22;7538;53.626;9.906;2023-05-07T12:43:19;15.00;99.90
14893;DHT22;7538;53.626;9.906;2023-05-07T12:45:48;15.10;99.90
14893;DHT22;7538;53.626;9.906;2023-05-07T12:48:16;15.10;99.90
14893;DHT22;7538;53.626;9.906;2023-05-07T12:50:43;15.20;99.90
14893;DHT22;7538;53.626;9.906;2023-05-07T12:53:11;15.10;99.90
14893;DHT22;7538;53.626;9.906;2023-05-07T12:55:42;15.00;99.90
14893;DHT22;7538;53.626;9.906;2023-05-07T12:58:19;15.00;99.90
14893;DHT22;7538;53.626;9.906;2023-05-07T13:00:48;15.00;99.90
14893;DHT22;7538;53.626;9.906;2023-05-07T13:03:24;15.20;99.90
14893;DHT22;7538;53.626;9.906;2023-05-07T13:05:51;15.10;99.90
14893;DHT22;7538;53.626;9.906;2023-05-07T13:08:29;15.40;99.90
14893;DHT22;7538;53.626;9.906;2023-05-07T13:10:58;15.40;99.90
14893;DHT22;7538;53.626;9.906;2023-05-07T13:13:26;15.40;99.90
14893;DHT22;7538;53.626;9.906;2023-05-07T13:15:53;15.60;99.90
14893;DHT22;7538;53.626;9.906;2023-05-07T13:18:20;15.60;99.90
14893;DHT22;7538;53.626;9.906;2023-05-07T13:20:47;15.60;99.90
14893;DHT22;7538;53.626;9.906;2023-05-07T13:23:14;15.70;99.90
14893;DHT22;7538;53.626;9.906;2023-05-07T13:25:41;15.50;99.90
14893;DHT22;7538;53.626;9.906;2023-05-07T13:28:08;15.50;99.90
14893;DHT22;7538;53.626;9.906;2023-05-07T13:30:37;15.50;99.90
14893;DHT22;7538;53.626;9.906;2023-05-07T13:33:04;15.60;99.90
14893;DHT22;7538;53.626;9.906;2023-05-07T13:35:31;15.70;99.90
14893;DHT22;7538;53.626;9.906;2023-05-07T13:37:58;15.70;99.90
14893;DHT22;7538;53.626;9.906;2023-05-07T13:40:25;15.70;99.90
14893;DHT22;7538;53.626;9.906;2023-05-07T13:42:53;15.60;99.90
14893;DHT22;7538;53.626;9.906;2023-05-07T13:45:20;15.60;99.90
14893;DHT22;7538;53.626;9.906;2023-05-07T13:47:48;15.60;99.90
14893;DHT22;7538;53.626;9.906;2023-05-07T13:50:16;15.70;99.90
14893;DHT22;7538;53.626;9.906;2023-05-07T13:52:43;15.70;99.90
14893;DHT22;7538;53.626;9.906;2023-05-07T13:55:16;15.60;99.90
14893;DHT22;7538;53.626;9.906;2023-05-07T13:57:43;15.60;99.80
14893;DHT22;7538;53.626;9.906;2023-05-07T14:00:11;15.60;99.90
14893;DHT22;7538;53.626;9.906;2023-05-07T14:02:38;15.60;99.90
14893;DHT22;7538;53.626;9.906;2023-05-07T14:05:07;15.70;99.90
14893;DHT22;7538;53.626;9.906;2023-05-07T14:07:35;15.80;99.70
14893;DHT22;7538;53.626;9.906;2023-05-07T14:10:02;15.90;99.50
14893;DHT22;7538;53.626;9.906;2023-05-07T14:12:30;15.90;99.20
14893;DHT22;7538;53.626;9.906;2023-05-07T14:14:56;15.90;99.50
14893;DHT22;7538;53.626;9.906;2023-05-07T14:17:23;16.10;99.30
14893;DHT22;7538;53.626;9.906;2023-05-07T14:19:52;18.00;99.20
14893;DHT22;7538;53.626;9.906;2023-05-07T14:22:21;16.20;98.10
14893;DHT22;7538;53.626;9.906;2023-05-07T14:24:49;16.20;97.90
14893;DHT22;7538;53.626;9.906;2023-05-07T14:27:16;16.10;98.30
14893;DHT22;7538;53.626;9.906;2023-05-07T14:29:43;16.30;97.90
14893;DHT22;7538;53.626;9.906;2023-05-07T14:32:11;16.30;97.70
14893;DHT22;7538;53.626;9.906;2023-05-07T14:34:37;16.40;97.50
14893;DHT22;7538;53.626;9.906;2023-05-07T14:37:04;16.50;97.50
14893;DHT22;7538;53.626;9.906;2023-05-07T14:39:32;16.50;97.10
14893;DHT22;7538;53.626;9.906;2023-05-07T14:41:59;16.60;96.80
14893;DHT22;7538;53.626;9.906;2023-05-07T14:44:26;16.60;96.90
14893;DHT22;7538;53.626;9.906;2023-05-07T14:46:53;16.70;96.90
14893;DHT22;7538;53.626;9.906;2023-05-07T14:49:20;16.90;96.90
14893;DHT22;7538;53.626;9.906;2023-05-07T14:51:47;17.00;95.80
14893;DHT22;7538;53.626;9.906;2023-05-07T14:54:14;17.00;95.90
14893;DHT22;7538;53.626;9.906;2023-05-07T14:56:42;17.00;96.00
14893;DHT22;7538;53.626;9.906;2023-05-07T14:59:09;17.10;95.80
14893;DHT22;7538;53.626;9.906;2023-05-07T15:01:36;17.00;95.50
14893;DHT22;7538;53.626;9.906;2023-05-07T15:04:04;17.00;95.80
14893;DHT22;7538;53.626;9.906;2023-05-07T15:06:31;16.70;95.90
14893;DHT22;7538;53.626;9.906;2023-05-07T15:08:58;16.60;96.60
14893;DHT22;7538;53.626;9.906;2023-05-07T15:11:25;16.40;97.00
14893;DHT22;7538;53.626;9.906;2023-05-07T15:13:54;16.30;97.00
14893;DHT22;7538;53.626;9.906;2023-05-07T15:16:20;16.20;97.20
14893;DHT22;7538;53.626;9.906;2023-05-07T15:18:48;16.20;97.30
14893;DHT22;7538;53.626;9.906;2023-05-07T15:21:15;16.10;97.10
14893;DHT22;7538;53.626;9.906;2023-05-07T15:23:42;16.00;97.10
14893;DHT22;7538;53.626;9.906;2023-05-07T15:26:10;16.00;97.10
14893;DHT22;7538;53.626;9.906;2023-05-07T15:28:37;16.00;97.20
14893;DHT22;7538;53.626;9.906;2023-05-07T15:31:06;16.10;97.20
14893;DHT22;7538;53.626;9.906;2023-05-07T15:33:33;16.20;96.90
14893;DHT22;7538;53.626;9.906;2023-05-07T15:35:59;16.20;96.70
14893;DHT22;7538;53.626;9.906;2023-05-07T15:38:29;16.20;96.60
14893;DHT22;7538;53.626;9.906;2023-05-07T15:40:56;16.30;96.80
14893;DHT22;7538;53.626;9.906;2023-05-07T15:43:22;16.30;96.90
14893;DHT22;7538;53.626;9.906;2023-05-07T15:45:50;16.40;96.70
14893;DHT22;7538;53.626;9.906;2023-05-07T15:48:18;16.30;96.50
14893;DHT22;7538;53.626;9.906;2023-05-07T15:50:45;16.30;96.70
14893;DHT22;7538;53.626;9.906;2023-05-07T15:53:12;16.40;96.50
14893;DHT22;7538;53.626;9.906;2023-05-07T15:55:40;16.40;96.70
14893;DHT22;7538;53.626;9.906;2023-05-07T15:58:07;16.40;96.40
14893;DHT22;7538;53.626;9.906;2023-05-07T16:00:34;16.50;95.90